Time;durP1;ratioP1;P1;durP2;ratioP2;P2;SDS_P1;SDS_P2;PMS_P1;PMS_P2;Temp;Humidity;BMP_temperature;BMP_pressure;BME280_temperature;BME280_humidity;BME280_pressure;Samples;Min_cycle;Max_cycle;Signal;HPM_P1;HPM_P2
2020/12/31 00:01:28;;;;;;;20.13;15.07;;;1.70;1.00;;;;;;5096162;28;20046;-92
2020/12/31 00:03:54;;;;;;;18.30;13.55;;;1.60;1.00;;;;;;5096532;28;20028;-93
2020/12/31 00:06:20;;;;;;;17.15;12.27;;;1.50;1.00;;;;;;5096175;28;20027;-93
2020/12/31 00:08:47;;;;;;;18.25;12.88;;;2.10;1.00;;;;;;5096161;28;20028;-92
2020/12/31 00:11:13;;;;;;;18.90;12.23;;;1.60;1.00;;;;;;5096482;28;20032;-92
2020/12/31 00:13:39;;;;;;;26.48;17.83;;;2.00;1.00;;;;;;5097033;28;20488;-92
2020/12/31 00:16:05;;;;;;;23.40;17.17;;;2.10;1.00;;;;;;5095716;28;20070;-92
2020/12/31 00:18:31;;;;;;;25.92;17.33;;;1.60;1.00;;;;;;5095898;28;20503;-92
2020/12/31 00:20:56;;;;;;;25.45;16.38;;;1.50;1.00;;;;;;5095903;28;20028;-92
2020/12/31 00:23:22;;;;;;;24.50;17.50;;;2.10;1.00;;;;;;5095755;28;20020;-93
2020/12/31 00:25:52;;;;;;;27.15;17.38;;;1.90;1.00;;;;;;5095780;28;20368;-92
2020/12/31 00:28:19;;;;;;;23.63;16.25;;;1.90;1.00;;;;;;5095281;28;20024;-92
2020/12/31 00:30:46;;;;;;;22.95;16.05;;;1.40;1.00;;;;;;5095623;28;20020;-92
2020/12/31 00:33:13;;;;;;;28.90;19.08;;;1.90;1.00;;;;;;5095593;28;20032;-92
2020/12/31 00:35:39;;;;;;;25.75;18.83;;;1.90;1.00;;;;;;5095705;28;20115;-92
2020/12/31 00:38:04;;;;;;;22.48;16.08;;;1.50;1.00;;;;;;5095706;28;20124;-92
2020/12/31 00:40:30;;;;;;;15.57;11.90;;;1.40;1.00;;;;;;5095533;28;20021;-92
2020/12/31 00:42:56;;;;;;;17.45;12.45;;;1.40;1.00;;;;;;5095167;28;20020;-92
2020/12/31 00:45:21;;;;;;;16.25;11.57;;;2.00;1.00;;;;;;5087084;28;20020;-92
2020/12/31 00:47:47;;;;;;;21.92;14.05;;;1.50;1.00;;;;;;5075417;28;20154;-92
2020/12/31 00:50:12;;;;;;;25.23;15.60;;;1.50;1.00;;;;;;5084256;28;20059;-92
2020/12/31 00:52:38;;;;;;;19.85;13.32;;;1.90;1.00;;;;;;5095047;28;20092;-92
2020/12/31 00:55:04;;;;;;;21.48;15.15;;;1.80;1.00;;;;;;5094780;28;20038;-92
2020/12/31 00:57:30;;;;;;;39.53;22.30;;;1.50;1.00;;;;;;5094930;28;20024;-92
2020/12/31 00:59:55;;;;;;;34.38;19.45;;;1.50;1.00;;;;;;5095354;28;20400;-92
2020/12/31 01:02:21;;;;;;;19.70;12.95;;;1.50;1.00;;;;;;5094883;28;20024;-92
2020/12/31 01:04:46;;;;;;;17.65;12.43;;;1.50;1.00;;;;;;5094994;28;20020;-92
2020/12/31 01:07:16;;;;;;;21.25;14.50;;;1.50;1.00;;;;;;5074679;28;20083;-92
2020/12/31 01:09:42;;;;;;;21.17;14.15;;;1.60;1.00;;;;;;5074732;28;20067;-92
2020/12/31 01:12:09;;;;;;;21.70;14.88;;;1.60;1.00;;;;;;5086384;28;20024;-92
2020/12/31 01:14:35;;;;;;;19.08;13.30;;;1.50;1.00;;;;;;5094576;28;20024;-92
2020/12/31 01:17:00;;;;;;;14.18;10.50;;;1.50;1.00;;;;;;5094502;28;20497;-92
2020/12/31 01:19:26;;;;;;;14.23;10.20;;;1.50;1.00;;;;;;5093866;28;20027;-93
2020/12/31 01:21:52;;;;;;;13.75;10.02;;;2.00;1.00;;;;;;5094361;28;20130;-92
2020/12/31 01:24:17;;;;;;;16.52;11.52;;;1.60;1.00;;;;;;5094499;28;20472;-92
2020/12/31 01:26:43;;;;;;;14.98;11.02;;;1.60;1.00;;;;;;5095051;28;20130;-92
2020/12/31 01:29:08;;;;;;;13.68;9.88;;;1.40;1.00;;;;;;5094406;28;20077;-92
2020/12/31 01:31:34;;;;;;;14.98;10.48;;;1.90;1.00;;;;;;5094384;28;20399;-92
2020/12/31 01:34:00;;;;;;;15.23;10.77;;;1.40;1.00;;;;;;5094150;28;20028;-92
2020/12/31 01:36:26;;;;;;;14.77;10.45;;;2.00;1.00;;;;;;5094185;28;20036;-93
2020/12/31 01:38:52;;;;;;;14.05;9.85;;;2.10;1.00;;;;;;5094428;28;20024;-91
2020/12/31 01:41:24;;;;;;;15.65;9.63;;;1.70;1.00;;;;;;5094437;28;20056;-92
2020/12/31 01:44:04;;;;;;;13.70;10.25;;;1.80;1.00;;;;;;5093813;28;20016;-92
2020/12/31 01:46:33;;;;;;;14.57;10.10;;;2.30;1.00;;;;;;5094325;28;20032;-92
2020/12/31 01:49:00;;;;;;;16.85;10.65;;;1.90;1.00;;;;;;5093798;28;20024;-92
2020/12/31 01:51:27;;;;;;;16.35;10.70;;;2.50;1.00;;;;;;5093650;28;20127;-92
2020/12/31 01:53:56;;;;;;;14.30;9.93;;;2.50;1.00;;;;;;5094353;28;20035;-92
2020/12/31 01:56:31;;;;;;;13.07;10.55;;;1.80;1.00;;;;;;5093588;28;20066;-92
2020/12/31 01:58:57;;;;;;;15.23;9.80;;;1.70;1.00;;;;;;5082336;28;20016;-92
2020/12/31 02:01:25;;;;;;;14.32;10.20;;;1.50;1.00;;;;;;5092904;28;20495;-92
2020/12/31 02:03:52;;;;;;;16.88;12.07;;;1.80;1.00;;;;;;5081591;28;20037;-92
2020/12/31 02:06:20;;;;;;;13.63;9.48;;;1.90;1.00;;;;;;5093407;28;20036;-92
2020/12/31 02:08:45;;;;;;;13.70;9.13;;;1.90;1.00;;;;;;5093679;28;20123;-92
2020/12/31 02:11:16;;;;;;;13.25;9.27;;;1.50;1.00;;;;;;5090957;28;20498;-92
2020/12/31 02:13:46;;;;;;;13.18;9.52;;;2.10;1.00;;;;;;5088407;28;20110;-93
2020/12/31 02:16:13;;;;;;;12.98;8.40;;;1.70;1.00;;;;;;5081941;28;20087;-92
2020/12/31 02:19:11;;;;;;;11.15;8.15;;;1.70;1.00;;;;;;5093321;28;20024;-92
2020/12/31 02:21:56;;;;;;;13.80;8.68;;;1.70;1.00;;;;;;5082803;28;20119;-92
2020/12/31 02:24:22;;;;;;;11.10;8.57;;;1.80;1.00;;;;;;5090424;28;20020;-92
2020/12/31 02:26:49;;;;;;;12.57;8.00;;;2.00;1.00;;;;;;5093436;28;20028;-92
2020/12/31 02:29:15;;;;;;;11.23;8.40;;;2.20;1.00;;;;;;5093199;28;20107;-92
2020/12/31 02:31:42;;;;;;;10.25;7.50;;;1.90;1.00;;;;;;5092867;28;20082;-92
2020/12/31 02:34:09;;;;;;;11.25;7.53;;;2.40;1.00;;;;;;5093262;28;20028;-92
2020/12/31 02:36:36;;;;;;;9.90;7.45;;;2.00;1.00;;;;;;5093222;28;20028;-92
2020/12/31 02:39:13;;;;;;;9.57;6.72;;;2.00;1.00;;;;;;5073156;28;20027;-92
2020/12/31 02:41:40;;;;;;;9.70;6.78;;;2.60;1.00;;;;;;5092838;28;20114;-92
2020/12/31 02:44:07;;;;;;;9.18;6.15;;;2.60;1.00;;;;;;5093396;28;20074;-92
2020/12/31 02:46:34;;;;;;;9.15;6.60;;;2.20;1.00;;;;;;5093266;28;20036;-92
2020/12/31 02:49:00;;;;;;;8.95;6.40;;;2.20;1.00;;;;;;5093055;28;20036;-92
2020/12/31 02:51:26;;;;;;;8.02;6.28;;;2.20;1.00;;;;;;5093286;28;20434;-92
2020/12/31 02:53:51;;;;;;;11.27;6.97;;;2.20;1.00;;;;;;5092797;28;20024;-92
2020/12/31 02:56:23;;;;;;;9.00;6.28;;;2.30;1.00;;;;;;5092481;28;20036;-92
2020/12/31 02:58:48;;;;;;;8.50;6.05;;;2.50;1.00;;;;;;5092199;28;20016;-92
2020/12/31 03:01:15;;;;;;;8.27;6.10;;;2.40;1.00;;;;;;5092085;28;20058;-92
2020/12/31 03:03:41;;;;;;;8.57;6.30;;;2.10;1.00;;;;;;5093402;28;20024;-92
2020/12/31 03:06:07;;;;;;;10.13;6.22;;;2.10;1.00;;;;;;5092797;28;20028;-92
2020/12/31 03:08:33;;;;;;;9.10;6.35;;;2.60;1.00;;;;;;5092149;28;20023;-92
2020/12/31 03:10:59;;;;;;;10.15;7.45;;;2.20;1.00;;;;;;5092808;28;20020;-92
2020/12/31 03:13:25;;;;;;;10.68;6.97;;;2.20;1.00;;;;;;5091523;28;20024;-92
2020/12/31 03:15:55;;;;;;;8.43;6.70;;;2.20;1.00;;;;;;5089652;28;20042;-92
2020/12/31 03:18:21;;;;;;;11.27;6.10;;;2.80;1.00;;;;;;5084476;28;20119;-92
2020/12/31 03:20:48;;;;;;;7.90;6.03;;;2.50;1.00;;;;;;5072524;28;20463;-92
2020/12/31 03:23:14;;;;;;;8.98;6.03;;;2.70;1.00;;;;;;5072712;28;20029;-92
2020/12/31 03:25:41;;;;;;;10.48;6.13;;;3.10;1.00;;;;;;5072749;28;20034;-92
2020/12/31 03:28:07;;;;;;;8.55;6.45;;;3.00;1.00;;;;;;5081227;28;20016;-92
2020/12/31 03:30:33;;;;;;;7.90;6.13;;;2.80;1.00;;;;;;5092433;28;20115;-92
2020/12/31 03:33:48;;;;;;;8.45;6.70;;;2.60;1.00;;;;;;5091861;28;20028;-92
2020/12/31 03:36:13;;;;;;;8.73;6.10;;;2.60;1.00;;;;;;5092356;28;20028;-92
2020/12/31 03:38:39;;;;;;;9.65;6.00;;;2.50;1.00;;;;;;5092358;28;20062;-92
2020/12/31 03:41:04;;;;;;;6.63;5.10;;;3.10;1.00;;;;;;5092545;28;20400;-92
2020/12/31 03:43:30;;;;;;;7.20;5.55;;;2.80;1.00;;;;;;5092380;28;20016;-92
2020/12/31 03:45:56;;;;;;;7.57;5.40;;;2.90;1.00;;;;;;5092348;28;20107;-92
2020/12/31 03:48:21;;;;;;;9.02;6.35;;;3.20;1.00;;;;;;5092199;28;20122;-92
2020/12/31 03:50:47;;;;;;;8.40;5.57;;;3.30;1.00;;;;;;5092626;28;20028;-92
2020/12/31 03:53:12;;;;;;;7.63;5.13;;;3.20;1.00;;;;;;5092236;28;20024;-92
2020/12/31 03:55:38;;;;;;;7.15;4.95;;;3.30;1.00;;;;;;5092092;28;20028;-92
2020/12/31 03:58:04;;;;;;;6.22;5.00;;;3.10;1.00;;;;;;5091941;28;20050;-92
2020/12/31 04:00:29;;;;;;;6.18;5.22;;;2.80;1.00;;;;;;5092808;28;20024;-92
2020/12/31 04:02:55;;;;;;;7.43;5.00;;;3.10;1.00;;;;;;5091066;28;20115;-92
2020/12/31 04:05:21;;;;;;;5.63;4.50;;;3.30;1.00;;;;;;5092776;28;20032;-92
2020/12/31 04:07:46;;;;;;;6.45;4.80;;;3.30;1.00;;;;;;5091623;28;20028;-92
2020/12/31 04:10:12;;;;;;;4.50;4.07;;;3.00;1.00;;;;;;5092334;28;20039;-92
2020/12/31 04:12:38;;;;;;;5.38;4.25;;;3.50;1.00;;;;;;5092082;28;20031;-92
2020/12/31 04:15:04;;;;;;;5.50;3.92;;;3.00;1.00;;;;;;5092148;28;20077;-92
2020/12/31 04:17:29;;;;;;;5.00;3.42;;;3.10;1.00;;;;;;5091844;28;20434;-92
2020/12/31 04:19:55;;;;;;;5.45;3.47;;;3.30;1.00;;;;;;5092537;28;20078;-92
2020/12/31 04:22:20;;;;;;;4.22;3.33;;;3.70;1.00;;;;;;5091949;28;20051;-92
2020/12/31 04:24:46;;;;;;;4.57;3.38;;;3.70;1.00;;;;;;5093972;28;20391;-92
2020/12/31 04:27:12;;;;;;;4.78;3.45;;;3.20;1.00;;;;;;5095822;28;20020;-92
2020/12/31 04:29:37;;;;;;;5.15;3.60;;;3.30;1.00;;;;;;5095379;28;20110;-92
2020/12/31 04:32:03;;;;;;;5.80;3.30;;;3.80;1.00;;;;;;5095826;28;20020;-92
2020/12/31 04:34:29;;;;;;;4.15;3.38;;;3.30;1.00;;;;;;5095465;28;20031;-92
2020/12/31 04:36:54;;;;;;;4.40;3.33;;;3.60;1.00;;;;;;5095464;28;20028;-92
2020/12/31 04:39:20;;;;;;;5.05;3.33;;;3.60;1.00;;;;;;5095374;28;20020;-92
2020/12/31 04:41:46;;;;;;;4.93;3.55;;;3.70;1.00;;;;;;5095344;28;20024;-92
2020/12/31 04:44:15;;;;;;;4.50;3.40;;;3.80;1.00;;;;;;5095383;28;20499;-92
2020/12/31 04:46:48;;;;;;;3.65;3.10;;;4.00;1.00;;;;;;5095708;28;20054;-92
2020/12/31 04:49:21;;;;;;;5.13;3.30;;;4.00;1.00;;;;;;5095150;28;20024;-92
2020/12/31 04:51:48;;;;;;;4.15;3.50;;;3.50;1.00;;;;;;5095517;28;20487;-92
2020/12/31 04:54:14;;;;;;;3.92;2.85;;;3.90;1.00;;;;;;5095523;28;20024;-92
2020/12/31 04:56:39;;;;;;;4.63;3.05;;;4.00;1.00;;;;;;5094988;28;20036;-93
2020/12/31 04:59:07;;;;;;;3.88;3.17;;;4.00;1.00;;;;;;5095400;28;20020;-92
2020/12/31 05:01:34;;;;;;;3.65;2.80;;;3.60;1.00;;;;;;5095090;28;20036;-93
2020/12/31 05:04:00;;;;;;;2.80;2.17;;;3.90;1.00;;;;;;5094939;28;20021;-92
2020/12/31 05:06:27;;;;;;;3.15;2.15;;;3.60;1.00;;;;;;5095308;28;20032;-93
2020/12/31 05:08:53;;;;;;;2.63;2.30;;;4.20;1.00;;;;;;5094687;28;20534;-93
2020/12/31 05:11:19;;;;;;;3.05;2.00;;;3.70;1.00;;;;;;5095212;28;20049;-92
2020/12/31 05:13:46;;;;;;;3.13;2.03;;;4.40;1.00;;;;;;5094990;28;20035;-93
2020/12/31 05:16:12;;;;;;;2.15;1.83;;;3.80;1.00;;;;;;5095000;28;20134;-93
2020/12/31 05:18:39;;;;;;;2.17;1.73;;;4.30;1.00;;;;;;5094904;28;20459;-93
2020/12/31 05:21:15;;;;;;;2.83;1.63;;;4.20;1.00;;;;;;5094890;28;20024;-93
2020/12/31 05:23:40;;;;;;;2.13;1.60;;;4.30;1.00;;;;;;5094954;28;20024;-93
2020/12/31 05:26:06;;;;;;;2.20;1.85;;;4.30;1.00;;;;;;5094808;28;20023;-93
2020/12/31 05:28:33;;;;;;;2.28;1.83;;;4.00;1.00;;;;;;5094944;28;20016;-93
2020/12/31 05:31:01;;;;;;;2.88;2.20;;;4.10;1.00;;;;;;5094758;28;20028;-93
2020/12/31 05:33:34;;;;;;;2.38;1.70;;;3.90;1.00;;;;;;5094192;28;20020;-93
2020/12/31 05:36:27;;;;;;;2.58;1.67;;;4.10;1.00;;;;;;5094735;28;20024;-93
2020/12/31 05:39:01;;;;;;;2.47;1.40;;;3.70;1.00;;;;;;5094220;28;20119;-93
2020/12/31 05:41:34;;;;;;;2.78;1.90;;;3.50;1.00;;;;;;5094757;28;20537;-93
2020/12/31 05:44:05;;;;;;;2.45;1.45;;;3.40;1.00;;;;;;5094011;28;20094;-92
2020/12/31 05:46:31;;;;;;;2.30;1.73;;;3.30;1.00;;;;;;5094319;28;20503;-92
2020/12/31 05:48:57;;;;;;;1.83;1.55;;;3.30;1.00;;;;;;5093658;28;20518;-92
2020/12/31 05:51:26;;;;;;;2.58;1.40;;;3.50;1.00;;;;;;5094358;28;20031;-93
2020/12/31 05:53:53;;;;;;;3.90;1.60;;;3.30;1.00;;;;;;5094020;28;20028;-92
2020/12/31 05:56:20;;;;;;;3.10;1.50;;;3.70;1.00;;;;;;5094292;28;20028;-92
2020/12/31 05:58:50;;;;;;;4.28;1.67;;;3.40;1.00;;;;;;5093727;28;20020;-92
2020/12/31 06:01:18;;;;;;;2.38;1.60;;;3.50;1.00;;;;;;5093786;28;20020;-92
2020/12/31 06:03:52;;;;;;;1.55;1.45;;;3.60;1.00;;;;;;5093694;28;20024;-92
2020/12/31 06:06:21;;;;;;;2.35;1.50;;;3.90;1.00;;;;;;5093583;28;20116;-92
2020/12/31 06:08:53;;;;;;;1.80;1.50;;;3.80;1.00;;;;;;5093010;28;20035;-92
2020/12/31 06:11:34;;;;;;;1.95;1.60;;;3.90;1.00;;;;;;5093561;28;20107;-92
2020/12/31 06:14:05;;;;;;;1.90;1.50;;;3.50;1.00;;;;;;5093328;28;20024;-91
2020/12/31 06:16:38;;;;;;;1.85;1.40;;;3.60;1.00;;;;;;5093807;28;20048;-91
2020/12/31 06:19:27;;;;;;;1.85;1.60;;;3.90;1.00;;;;;;5092006;28;20031;-92
2020/12/31 06:21:58;;;;;;;2.70;2.03;;;4.00;1.00;;;;;;5092459;28;20035;-91
2020/12/31 06:24:45;;;;;;;2.08;1.58;;;3.90;1.00;;;;;;5093357;28;20016;-92
2020/12/31 06:27:16;;;;;;;2.30;1.90;;;3.40;1.00;;;;;;5091919;28;20395;-92
2020/12/31 06:29:44;;;;;;;2.83;1.88;;;4.00;1.00;;;;;;5091793;28;20031;-91
2020/12/31 06:32:26;;;;;;;2.50;1.70;;;3.80;1.00;;;;;;5091678;28;20039;-91
2020/12/31 06:35:01;;;;;;;2.70;1.83;;;3.40;1.00;;;;;;5091561;28;20036;-91
2020/12/31 06:37:28;;;;;;;2.20;1.70;;;3.90;1.00;;;;;;5094253;28;20024;-91
2020/12/31 06:40:27;;;;;;;2.60;1.60;;;3.40;1.00;;;;;;5093183;28;20028;-91
2020/12/31 06:43:09;;;;;;;2.22;1.50;;;3.40;1.00;;;;;;5091627;28;20036;-91
2020/12/31 06:45:42;;;;;;;2.35;1.60;;;3.90;1.00;;;;;;5078364;28;20027;-91
2020/12/31 06:48:26;;;;;;;2.30;1.65;;;3.50;1.00;;;;;;5090709;28;20039;-91
2020/12/31 06:51:00;;;;;;;2.15;1.90;;;3.50;1.00;;;;;;5087299;28;20036;-92
2020/12/31 06:53:29;;;;;;;2.92;1.80;;;3.40;1.00;;;;;;5086596;28;20031;-91
2020/12/31 06:55:55;;;;;;;2.33;1.63;;;3.30;1.00;;;;;;5092554;28;20031;-92
2020/12/31 06:58:25;;;;;;;2.60;1.60;;;3.60;1.00;;;;;;5091769;28;20111;-90
2020/12/31 07:00:54;;;;;;;1.30;1.20;;;3.40;1.00;;;;;;5094056;28;20020;-92
2020/12/31 07:03:45;;;;;;;1.73;1.35;;;3.70;1.00;;;;;;5092849;28;20026;-92
2020/12/31 07:06:23;;;;;;;2.00;1.50;;;4.00;1.00;;;;;;5092856;28;20053;-91
2020/12/31 07:08:49;;;;;;;1.50;1.40;;;3.90;1.00;;;;;;5092786;28;20024;-92
2020/12/31 07:11:14;;;;;;;1.67;1.20;;;3.50;1.00;;;;;;5092320;28;20434;-93
2020/12/31 07:13:40;;;;;;;1.45;1.33;;;3.90;1.00;;;;;;5093127;28;20017;-94
2020/12/31 07:16:07;;;;;;;1.58;1.35;;;3.90;1.00;;;;;;5092345;28;20036;-92
2020/12/31 07:18:33;;;;;;;2.97;1.52;;;3.70;1.00;;;;;;5093065;28;20032;-92
2020/12/31 07:21:02;;;;;;;2.65;1.40;;;3.80;1.00;;;;;;5092525;28;20552;-92
2020/12/31 07:23:37;;;;;;;1.90;1.52;;;4.10;1.00;;;;;;5090318;28;20024;-91
2020/12/31 07:26:03;;;;;;;1.90;1.40;;;3.80;1.00;;;;;;5091961;28;20032;-92
2020/12/31 07:28:29;;;;;;;2.63;1.30;;;3.70;1.00;;;;;;5092246;28;20043;-92
2020/12/31 07:30:55;;;;;;;1.25;1.10;;;3.80;1.00;;;;;;5090247;28;20028;-92
2020/12/31 07:33:37;;;;;;;1.38;1.17;;;3.50;1.00;;;;;;5090248;28;20020;-92
2020/12/31 07:36:13;;;;;;;3.13;1.25;;;3.90;1.00;;;;;;5091735;28;20035;-93
2020/12/31 07:38:40;;;;;;;2.03;1.23;;;4.00;1.00;;;;;;5091287;28;20024;-93
2020/12/31 07:41:11;;;;;;;4.70;1.30;;;3.50;1.00;;;;;;5091242;28;20026;-91
2020/12/31 07:43:37;;;;;;;1.15;1.05;;;3.60;1.00;;;;;;5091904;28;20024;-91
2020/12/31 07:46:04;;;;;;;1.95;1.33;;;4.00;1.00;;;;;;5091825;28;20519;-92
2020/12/31 07:48:30;;;;;;;2.85;2.00;;;4.10;1.00;;;;;;5091287;28;20031;-92
2020/12/31 07:51:01;;;;;;;2.05;1.40;;;4.10;1.00;;;;;;5092039;28;20483;-91
2020/12/31 07:53:27;;;;;;;3.00;1.60;;;3.60;1.00;;;;;;5089657;28;20028;-92
2020/12/31 07:55:53;;;;;;;1.75;1.20;;;3.90;1.00;;;;;;5091420;28;20499;-91
2020/12/31 07:58:24;;;;;;;1.77;1.20;;;3.90;1.00;;;;;;5092159;28;20114;-92
2020/12/31 08:01:00;;;;;;;2.38;1.55;;;4.00;1.00;;;;;;5095183;28;20525;-93
2020/12/31 08:03:26;;;;;;;4.10;1.80;;;3.70;1.00;;;;;;5096352;28;20024;-96
2020/12/31 08:05:56;;;;;;;2.50;1.27;;;4.30;1.00;;;;;;5095863;28;20023;-94
2020/12/31 08:08:23;;;;;;;1.75;1.25;;;3.90;1.00;;;;;;5095891;28;20020;-94
2020/12/31 08:10:48;;;;;;;2.35;1.40;;;3.80;1.00;;;;;;5095674;28;20032;-93
2020/12/31 08:13:17;;;;;;;1.38;1.23;;;3.90;1.00;;;;;;5095779;28;20062;-93
2020/12/31 08:15:52;;;;;;;3.83;1.27;;;3.90;1.00;;;;;;5095733;28;20030;-94
2020/12/31 08:18:18;;;;;;;1.98;1.35;;;4.40;1.00;;;;;;5092680;28;20503;-94
2020/12/31 08:20:45;;;;;;;1.90;1.30;;;4.30;1.00;;;;;;5095787;28;20050;-93
2020/12/31 08:23:26;;;;;;;2.60;1.40;;;4.40;1.00;;;;;;5094645;28;20024;-92
2020/12/31 08:25:56;;;;;;;2.40;1.20;;;4.00;1.00;;;;;;5105960;28;20435;-91
2020/12/31 08:28:22;;;;;;;4.55;1.20;;;4.30;1.00;;;;;;5102907;28;20028;-94
2020/12/31 08:30:48;;;;;;;2.33;1.35;;;4.10;1.00;;;;;;5111383;28;20020;-93
2020/12/31 08:33:23;;;;;;;2.30;1.42;;;4.10;1.00;;;;;;5095177;28;20016;-93
2020/12/31 08:35:49;;;;;;;1.88;1.60;;;4.40;1.00;;;;;;5095416;28;20024;-93
2020/12/31 08:38:18;;;;;;;3.00;1.50;;;4.20;1.00;;;;;;5093931;28;20127;-94
2020/12/31 08:40:45;;;;;;;1.67;1.45;;;4.10;1.00;;;;;;5095199;28;20016;-93
2020/12/31 08:43:21;;;;;;;3.83;1.63;;;4.50;1.00;;;;;;5095309;28;20039;-93
2020/12/31 08:45:48;;;;;;;1.20;1.10;;;4.50;1.00;;;;;;5093831;28;20107;-88
2020/12/31 08:48:22;;;;;;;1.85;1.17;;;4.60;1.00;;;;;;5094806;28;20115;-94
2020/12/31 08:51:07;;;;;;;2.50;1.45;;;4.30;1.00;;;;;;5094138;28;20020;-86
2020/12/31 08:53:49;;;;;;;2.60;1.50;;;4.20;1.00;;;;;;5093895;28;20059;-90
2020/12/31 08:56:15;;;;;;;1.65;1.50;;;4.40;1.00;;;;;;5093927;28;20144;-91
2020/12/31 08:58:41;;;;;;;2.88;1.48;;;4.80;1.00;;;;;;5094605;28;20434;-90
2020/12/31 09:01:06;;;;;;;1.90;1.38;;;4.50;1.00;;;;;;5094086;28;20024;-89
2020/12/31 09:03:32;;;;;;;2.88;1.60;;;4.70;1.00;;;;;;5093709;28;20020;-90
2020/12/31 09:06:00;;;;;;;1.98;1.35;;;4.40;1.00;;;;;;5093782;28;20020;-88
2020/12/31 09:08:27;;;;;;;2.20;1.60;;;4.40;1.00;;;;;;5093036;28;20016;-93
2020/12/31 09:11:01;;;;;;;2.10;1.55;;;4.50;1.00;;;;;;5094226;28;20043;-91
2020/12/31 09:13:27;;;;;;;2.45;1.40;;;4.50;1.00;;;;;;5093923;28;20039;-89
2020/12/31 09:16:08;;;;;;;2.53;1.45;;;4.70;1.00;;;;;;5093428;28;22570;-91
2020/12/31 09:18:33;;;;;;;4.80;1.60;;;4.60;1.00;;;;;;5094716;28;20107;-91
2020/12/31 09:20:59;;;;;;;2.28;1.40;;;4.90;1.00;;;;;;5094687;28;20509;-92
2020/12/31 09:23:25;;;;;;;1.45;1.35;;;5.00;1.00;;;;;;5092085;28;20035;-91
2020/12/31 09:25:51;;;;;;;1.95;1.35;;;4.70;1.00;;;;;;5093256;28;20054;-91
2020/12/31 09:28:20;;;;;;;2.45;1.67;;;4.70;1.00;;;;;;5094645;28;20073;-91
2020/12/31 09:30:46;;;;;;;1.52;1.38;;;4.70;1.00;;;;;;5087383;28;20103;-92
2020/12/31 09:33:16;;;;;;;1.63;1.33;;;4.80;1.00;;;;;;5094249;28;20447;-90
2020/12/31 09:35:42;;;;;;;1.92;1.48;;;4.60;1.00;;;;;;5093833;28;20024;-91
2020/12/31 09:38:08;;;;;;;2.03;1.55;;;4.60;1.00;;;;;;5092542;28;20050;-94
2020/12/31 09:40:33;;;;;;;2.17;1.70;;;4.70;1.00;;;;;;5094343;28;20028;-95
2020/12/31 09:42:59;;;;;;;2.38;1.50;;;4.80;1.00;;;;;;5094343;28;20025;-92
2020/12/31 09:45:25;;;;;;;2.60;1.55;;;4.80;1.00;;;;;;5093317;28;20111;-92
2020/12/31 09:47:51;;;;;;;1.85;1.60;;;4.80;1.00;;;;;;5093869;28;20030;-91
2020/12/31 09:50:17;;;;;;;2.40;1.40;;;5.10;1.00;;;;;;5093452;28;20035;-91
2020/12/31 09:52:43;;;;;;;1.48;1.30;;;5.00;1.00;;;;;;5090601;28;20024;-91
2020/12/31 09:55:08;;;;;;;4.72;1.90;;;5.00;1.00;;;;;;5093636;28;20028;-91
2020/12/31 09:57:35;;;;;;;1.67;1.48;;;5.20;1.00;;;;;;5092796;28;20020;-89
2020/12/31 10:00:02;;;;;;;2.08;1.50;;;5.20;1.00;;;;;;5094476;28;20047;-91
2020/12/31 10:02:28;;;;;;;2.42;1.70;;;5.30;1.00;;;;;;5093648;28;20097;-91
2020/12/31 10:04:54;;;;;;;2.60;1.88;;;5.70;1.00;;;;;;5094560;28;20024;-93
2020/12/31 10:07:19;;;;;;;2.22;1.60;;;5.50;1.00;;;;;;5090659;28;20708;-95
2020/12/31 10:09:45;;;;;;;1.98;1.33;;;5.50;1.00;;;;;;5092251;28;20064;-92
2020/12/31 10:12:14;;;;;;;2.13;1.73;;;6.10;1.00;;;;;;5092511;28;20069;-92
2020/12/31 10:14:41;;;;;;;2.45;1.52;;;5.40;1.00;;;;;;5092710;28;20024;-92
2020/12/31 10:17:07;;;;;;;3.42;1.80;;;5.40;1.00;;;;;;5093254;28;20479;-91
2020/12/31 10:19:33;;;;;;;3.30;1.52;;;5.40;1.00;;;;;;5093230;28;20063;-91
2020/12/31 10:21:59;;;;;;;2.25;1.70;;;5.60;1.00;;;;;;5088855;28;20051;-92
2020/12/31 10:24:24;;;;;;;1.95;1.65;;;5.60;1.00;;;;;;5107001;28;20052;-94
2020/12/31 10:26:50;;;;;;;1.90;1.70;;;5.70;1.00;;;;;;5092976;28;20035;-96
2020/12/31 10:29:16;;;;;;;2.22;1.50;;;5.70;1.00;;;;;;5092874;28;20028;-91
2020/12/31 10:31:42;;;;;;;2.38;1.35;;;6.30;1.00;;;;;;5092770;28;20012;-91
2020/12/31 10:34:10;;;;;;;1.60;1.48;;;5.80;1.00;;;;;;5092719;28;20445;-91
2020/12/31 10:36:37;;;;;;;2.08;1.50;;;5.90;1.00;;;;;;5090999;28;20027;-91
2020/12/31 10:39:03;;;;;;;1.70;1.60;;;5.90;1.00;;;;;;5092341;28;20104;-92
2020/12/31 10:41:32;;;;;;;3.78;2.30;;;5.90;1.00;;;;;;5092141;28;20023;-93
2020/12/31 10:43:58;;;;;;;1.48;1.35;;;6.00;1.00;;;;;;5092387;28;20035;-91
2020/12/31 10:46:27;;;;;;;2.38;1.50;;;6.30;1.00;;;;;;5092911;28;20024;-91
2020/12/31 10:48:53;;;;;;;2.10;1.50;;;6.00;1.00;;;;;;5092380;28;20028;-91
2020/12/31 10:51:20;;;;;;;2.53;2.22;;;6.50;1.00;;;;;;5086399;28;20392;-92
2020/12/31 10:53:45;;;;;;;1.92;1.73;;;6.30;1.00;;;;;;5092474;28;20070;-92
2020/12/31 10:56:11;;;;;;;1.75;1.52;;;7.10;1.00;;;;;;5092554;28;20024;-93
2020/12/31 10:58:37;;;;;;;2.83;1.50;;;7.90;1.00;;;;;;5092711;28;20035;-91
2020/12/31 11:01:03;;;;;;;1.90;1.33;;;8.70;99.90;;;;;;5091856;28;20016;-92
2020/12/31 11:03:29;;;;;;;1.48;1.17;;;9.10;99.90;;;;;;5092038;28;20027;-93
2020/12/31 11:05:55;;;;;;;1.45;1.30;;;8.90;99.90;;;;;;5104313;28;20017;-91
2020/12/31 11:08:21;;;;;;;1.95;1.20;;;8.00;99.90;;;;;;5091193;28;20488;-91
2020/12/31 11:10:48;;;;;;;1.67;1.30;;;7.00;99.90;;;;;;5091631;28;20024;-90
2020/12/31 11:13:14;;;;;;;1.75;1.33;;;6.80;1.00;;;;;;5091885;28;20036;-92
2020/12/31 11:15:40;;;;;;;1.38;1.27;;;6.80;1.00;;;;;;5091702;28;20024;-92
2020/12/31 11:18:06;;;;;;;2.40;1.50;;;6.50;1.00;;;;;;5091318;28;20402;-95
2020/12/31 11:20:32;;;;;;;1.20;1.10;;;6.40;1.00;;;;;;5088942;28;20751;-91
2020/12/31 11:22:57;;;;;;;1.30;1.20;;;6.40;1.00;;;;;;5096473;28;20025;-92
2020/12/31 11:25:23;;;;;;;1.33;1.23;;;6.40;1.00;;;;;;5089185;28;20020;-92
2020/12/31 11:27:49;;;;;;;1.50;1.40;;;6.80;1.00;;;;;;5091835;28;20043;-92
2020/12/31 11:30:14;;;;;;;1.27;1.17;;;6.10;1.00;;;;;;5091340;28;20052;-91
2020/12/31 11:32:40;;;;;;;1.40;1.30;;;5.50;23.80;;;;;;5091841;28;20031;-91
2020/12/31 11:35:06;;;;;;;2.63;1.60;;;6.00;12.20;;;;;;5094943;28;20519;-92
2020/12/31 11:37:35;;;;;;;1.77;1.30;;;6.50;1.00;;;;;;5099775;28;20024;-92
2020/12/31 11:40:03;;;;;;;2.25;1.85;;;6.10;1.00;;;;;;5099459;28;20023;-94
2020/12/31 11:42:33;;;;;;;3.05;1.67;;;6.10;1.00;;;;;;5097006;28;20028;-93
2020/12/31 11:45:03;;;;;;;1.45;1.23;;;6.50;1.00;;;;;;5096333;28;20501;-94
2020/12/31 11:47:29;;;;;;;1.98;1.40;;;6.00;1.00;;;;;;5096144;28;20558;-92
2020/12/31 11:49:54;;;;;;;2.22;1.60;;;6.40;1.00;;;;;;5095987;28;20062;-93
2020/12/31 11:52:20;;;;;;;1.48;1.20;;;6.20;1.00;;;;;;5096579;28;20118;-91
2020/12/31 11:54:46;;;;;;;1.50;1.27;;;6.20;1.00;;;;;;5096520;28;20131;-92
2020/12/31 11:57:11;;;;;;;1.20;1.10;;;6.20;1.00;;;;;;5096207;28;20020;-93
2020/12/31 11:59:37;;;;;;;1.30;1.10;;;6.30;1.00;;;;;;5096463;28;20047;-92
2020/12/31 12:02:03;;;;;;;1.45;1.30;;;6.30;1.00;;;;;;5096045;28;20024;-93
2020/12/31 12:04:28;;;;;;;1.50;1.40;;;6.30;1.00;;;;;;5095236;28;20020;-91
2020/12/31 12:06:54;;;;;;;1.42;1.33;;;6.60;1.00;;;;;;5095785;28;20028;-91
2020/12/31 12:09:21;;;;;;;1.40;1.30;;;6.30;1.00;;;;;;5095266;28;20066;-93
2020/12/31 12:11:47;;;;;;;1.25;1.15;;;6.00;1.00;;;;;;5095280;28;20059;-92
2020/12/31 12:14:13;;;;;;;1.30;1.20;;;5.90;1.00;;;;;;5095495;28;20028;-94
2020/12/31 12:16:40;;;;;;;2.08;1.05;;;5.90;1.00;;;;;;5095366;28;20175;-93
2020/12/31 12:19:06;;;;;;;0.95;0.82;;;5.70;1.00;;;;;;5082380;28;20028;-91
2020/12/31 12:21:31;;;;;;;1.67;1.20;;;5.50;1.00;;;;;;5093609;28;20420;-91
2020/12/31 12:23:57;;;;;;;1.65;1.30;;;5.50;1.00;;;;;;5094952;28;20027;-92
2020/12/31 12:26:23;;;;;;;2.05;1.27;;;5.40;1.00;;;;;;5096013;28;20438;-95
2020/12/31 12:28:48;;;;;;;1.50;1.30;;;5.40;1.00;;;;;;5095008;28;20035;-94
2020/12/31 12:31:14;;;;;;;2.95;1.90;;;5.20;1.00;;;;;;5095514;28;20028;-90
2020/12/31 12:33:39;;;;;;;3.72;1.83;;;5.20;1.00;;;;;;5095908;28;20384;-92
2020/12/31 12:36:05;;;;;;;4.50;2.15;;;5.20;1.00;;;;;;5092019;28;20028;-88
2020/12/31 12:38:31;;;;;;;2.17;1.42;;;5.20;1.00;;;;;;5095495;28;20032;-89
2020/12/31 12:40:57;;;;;;;3.88;1.52;;;5.30;1.00;;;;;;5093747;28;20028;-88
2020/12/31 12:43:22;;;;;;;4.30;1.58;;;5.10;1.00;;;;;;5094121;28;20111;-88
2020/12/31 12:45:48;;;;;;;3.47;1.67;;;5.10;1.00;;;;;;5093045;28;20055;-88
2020/12/31 12:48:13;;;;;;;2.97;1.88;;;4.80;1.00;;;;;;5094022;28;20028;-88
2020/12/31 12:50:39;;;;;;;1.92;1.48;;;4.80;1.00;;;;;;5092942;28;20032;-88
2020/12/31 12:53:04;;;;;;;1.45;1.15;;;4.70;1.00;;;;;;5093621;28;20024;-89
2020/12/31 12:55:30;;;;;;;1.38;1.20;;;4.70;81.20;;;;;;5095359;28;20527;-88
2020/12/31 12:57:56;;;;;;;1.27;1.15;;;4.60;99.90;;;;;;5093169;28;20024;-87
2020/12/31 13:00:21;;;;;;;2.38;1.63;;;4.60;99.90;;;;;;5093540;28;20024;-87
2020/12/31 13:02:47;;;;;;;2.13;1.50;;;4.80;99.90;;;;;;5089326;28;20012;-87
2020/12/31 13:05:13;;;;;;;1.85;1.30;;;4.80;99.90;;;;;;5090778;28;20123;-88
2020/12/31 13:07:38;;;;;;;1.90;1.70;;;5.00;99.90;;;;;;5093136;28;20027;-87